sensor_id;sensor_type;location;lat;lon;timestamp;pressure;altitude;pressure_sealevel;temperature;humidity
57827;BME280;43656;57.746;11.780;2023-04-25T00:01:58;99510.59;;;13.40;94.63
57827;BME280;43656;57.746;11.780;2023-04-25T00:04:25;99509.06;;;13.45;94.73
57827;BME280;43656;57.746;11.780;2023-04-25T00:06:50;99497.03;;;13.35;95.07
57827;BME280;43656;57.746;11.780;2023-04-25T00:09:17;99497.28;;;13.34;95.54
57827;BME280;43656;57.746;11.780;2023-04-25T00:11:42;99480.44;;;13.27;95.73
57827;BME280;43656;57.746;11.780;2023-04-25T00:14:08;99495.41;;;13.34;95.63
57827;BME280;43656;57.746;11.780;2023-04-25T00:16:33;99494.56;;;13.34;96.04
57827;BME280;43656;57.746;11.780;2023-04-25T00:19:00;99497.28;;;13.34;96.00
57827;BME280;43656;57.746;11.780;2023-04-25T00:21:28;99492.31;;;13.26;96.52
57827;BME280;43656;57.746;11.780;2023-04-25T00:23:55;99489.25;;;13.22;96.62
57827;BME280;43656;57.746;11.780;2023-04-25T00:26:20;99493.94;;;13.27;96.36
57827;BME280;43656;57.746;11.780;2023-04-25T00:28:47;99490.69;;;13.25;96.45
57827;BME280;43656;57.746;11.780;2023-04-25T00:31:12;99494.25;;;13.30;96.43
57827;BME280;43656;57.746;11.780;2023-04-25T00:33:38;99486.28;;;13.24;96.73
57827;BME280;43656;57.746;11.780;2023-04-25T00:36:04;99481.06;;;13.17;96.69
57827;BME280;43656;57.746;11.780;2023-04-25T00:38:29;99486.78;;;13.21;96.71
57827;BME280;43656;57.746;11.780;2023-04-25T00:40:55;99489.44;;;13.15;97.16
57827;BME280;43656;57.746;11.780;2023-04-25T00:43:21;99491.00;;;13.11;96.91
57827;BME280;43656;57.746;11.780;2023-04-25T00:45:47;99487.41;;;13.06;97.34
57827;BME280;43656;57.746;11.780;2023-04-25T00:48:14;99488.22;;;13.06;97.06
57827;BME280;43656;57.746;11.780;2023-04-25T00:50:40;99486.31;;;13.07;97.26
57827;BME280;43656;57.746;11.780;2023-04-25T00:53:06;99482.00;;;13.06;97.17
57827;BME280;43656;57.746;11.780;2023-04-25T00:55:31;99487.41;;;13.06;97.25
57827;BME280;43656;57.746;11.780;2023-04-25T00:57:59;99489.78;;;13.02;97.71
57827;BME280;43656;57.746;11.780;2023-04-25T01:00:25;99477.66;;;13.05;97.72
57827;BME280;43656;57.746;11.780;2023-04-25T01:02:51;99473.00;;;13.00;97.40
57827;BME280;43656;57.746;11.780;2023-04-25T01:05:17;99488.84;;;13.13;97.39
57827;BME280;43656;57.746;11.780;2023-04-25T01:07:44;99486.97;;;13.14;97.61
57827;BME280;43656;57.746;11.780;2023-04-25T01:10:10;99485.09;;;13.14;97.29
57827;BME280;43656;57.746;11.780;2023-04-25T01:12:35;99465.47;;;13.02;97.14
57827;BME280;43656;57.746;11.780;2023-04-25T01:15:01;99477.19;;;13.08;98.05
57827;BME280;43656;57.746;11.780;2023-04-25T01:17:27;99487.06;;;13.02;98.08
57827;BME280;43656;57.746;11.780;2023-04-25T01:19:53;99471.91;;;13.01;98.56
57827;BME280;43656;57.746;11.780;2023-04-25T01:22:19;99473.31;;;13.04;98.42
57827;BME280;43656;57.746;11.780;2023-04-25T01:24:44;99473.47;;;12.97;98.56
57827;BME280;43656;57.746;11.780;2023-04-25T01:27:10;99472.50;;;13.03;98.49
57827;BME280;43656;57.746;11.780;2023-04-25T01:29:36;99453.03;;;12.84;99.15
57827;BME280;43656;57.746;11.780;2023-04-25T01:32:02;99470.22;;;12.95;99.17
57827;BME280;43656;57.746;11.780;2023-04-25T01:34:28;99475.06;;;12.93;99.14
57827;BME280;43656;57.746;11.780;2023-04-25T01:36:54;99475.81;;;12.88;99.72
57827;BME280;43656;57.746;11.780;2023-04-25T01:39:20;99454.88;;;12.79;99.76
57827;BME280;43656;57.746;11.780;2023-04-25T01:41:47;99469.31;;;12.89;99.79
57827;BME280;43656;57.746;11.780;2023-04-25T01:44:13;99462.84;;;12.90;99.34
57827;BME280;43656;57.746;11.780;2023-04-25T01:46:40;99470.16;;;12.90;99.66
57827;BME280;43656;57.746;11.780;2023-04-25T01:49:05;99462.22;;;12.83;99.75
57827;BME280;43656;57.746;11.780;2023-04-25T01:51:31;99461.97;;;12.85;100.00
57827;BME280;43656;57.746;11.780;2023-04-25T01:53:57;99461.88;;;12.80;100.00
57827;BME280;43656;57.746;11.780;2023-04-25T01:56:22;99460.00;;;12.80;100.00
57827;BME280;43656;57.746;11.780;2023-04-25T01:58:48;99464.41;;;12.86;99.90
57827;BME280;43656;57.746;11.780;2023-04-25T02:01:14;99462.22;;;12.83;99.84
57827;BME280;43656;57.746;11.780;2023-04-25T02:03:39;99455.00;;;12.89;99.88
57827;BME280;43656;57.746;11.780;2023-04-25T02:06:05;99457.94;;;12.87;100.00
57827;BME280;43656;57.746;11.780;2023-04-25T02:08:30;99470.41;;;12.88;100.00
57827;BME280;43656;57.746;11.780;2023-04-25T02:10:56;99453.88;;;12.85;99.90
57827;BME280;43656;57.746;11.780;2023-04-25T02:13:22;99444.78;;;12.74;100.00
57827;BME280;43656;57.746;11.780;2023-04-25T02:15:47;99428.84;;;12.73;100.00
57827;BME280;43656;57.746;11.780;2023-04-25T02:18:13;99443.25;;;12.78;100.00
57827;BME280;43656;57.746;11.780;2023-04-25T02:20:41;99425.25;;;12.67;100.00
57827;BME280;43656;57.746;11.780;2023-04-25T02:23:06;99450.50;;;12.78;100.00
57827;BME280;43656;57.746;11.780;2023-04-25T02:25:32;99423.38;;;12.67;100.00
57827;BME280;43656;57.746;11.780;2023-04-25T02:27:57;99439.97;;;12.76;100.00
57827;BME280;43656;57.746;11.780;2023-04-25T02:30:23;99435.97;;;12.79;100.00
57827;BME280;43656;57.746;11.780;2023-04-25T02:32:48;99431.94;;;12.81;100.00
57827;BME280;43656;57.746;11.780;2023-04-25T02:35:14;99434.91;;;12.63;100.00
57827;BME280;43656;57.746;11.780;2023-04-25T02:37:39;99440.81;;;12.60;100.00
57827;BME280;43656;57.746;11.780;2023-04-25T02:40:05;99434.75;;;12.69;100.00
57827;BME280;43656;57.746;11.780;2023-04-25T02:42:31;99417.59;;;12.59;100.00
57827;BME280;43656;57.746;11.780;2023-04-25T02:44:57;99424.19;;;12.68;100.00
57827;BME280;43656;57.746;11.780;2023-04-25T02:47:22;99426.72;;;12.75;100.00
57827;BME280;43656;57.746;11.780;2023-04-25T02:49:47;99425.34;;;12.72;100.00
57827;BME280;43656;57.746;11.780;2023-04-25T02:52:13;99419.13;;;12.72;100.00
57827;BME280;43656;57.746;11.780;2023-04-25T02:54:39;99420.28;;;12.76;100.00
57827;BME280;43656;57.746;11.780;2023-04-25T02:57:05;99418.06;;;12.73;100.00
57827;BME280;43656;57.746;11.780;2023-04-25T02:59:31;99406.63;;;12.65;100.00
57827;BME280;43656;57.746;11.780;2023-04-25T03:01:56;99421.66;;;12.78;100.00
57827;BME280;43656;57.746;11.780;2023-04-25T03:04:22;99406.69;;;12.70;100.00
57827;BME280;43656;57.746;11.780;2023-04-25T03:06:49;99412.66;;;12.73;100.00
57827;BME280;43656;57.746;11.780;2023-04-25T03:09:15;99407.59;;;12.76;100.00
57827;BME280;43656;57.746;11.780;2023-04-25T03:11:40;99412.09;;;12.70;100.00
57827;BME280;43656;57.746;11.780;2023-04-25T03:14:06;99411.59;;;12.74;100.00
57827;BME280;43656;57.746;11.780;2023-04-25T03:16:31;99414.88;;;12.76;100.00
57827;BME280;43656;57.746;11.780;2023-04-25T03:18:57;99387.50;;;12.50;100.00
57827;BME280;43656;57.746;11.780;2023-04-25T03:21:22;99412.25;;;12.64;100.00
57827;BME280;43656;57.746;11.780;2023-04-25T03:23:48;99397.44;;;12.66;100.00
57827;BME280;43656;57.746;11.780;2023-04-25T03:26:13;99382.19;;;12.55;100.00
57827;BME280;43656;57.746;11.780;2023-04-25T03:28:39;99387.31;;;12.57;100.00
57827;BME280;43656;57.746;11.780;2023-04-25T03:31:05;99406.13;;;12.68;100.00
57827;BME280;43656;57.746;11.780;2023-04-25T03:33:31;99395.56;;;12.67;100.00
57827;BME280;43656;57.746;11.780;2023-04-25T03:35:56;99396.38;;;12.67;100.00
57827;BME280;43656;57.746;11.780;2023-04-25T03:38:21;99386.84;;;12.60;100.00
57827;BME280;43656;57.746;11.780;2023-04-25T03:40:47;99379.66;;;12.49;100.00
57827;BME280;43656;57.746;11.780;2023-04-25T03:43:12;99395.81;;;12.65;100.00
57827;BME280;43656;57.746;11.780;2023-04-25T03:45:38;99394.75;;;12.66;100.00
57827;BME280;43656;57.746;11.780;2023-04-25T03:48:03;99393.69;;;12.67;100.00
57827;BME280;43656;57.746;11.780;2023-04-25T03:50:29;99386.66;;;12.66;100.00
57827;BME280;43656;57.746;11.780;2023-04-25T03:52:54;99382.38;;;12.70;100.00
57827;BME280;43656;57.746;11.780;2023-04-25T03:55:20;99386.47;;;12.73;100.00
57827;BME280;43656;57.746;11.780;2023-04-25T03:57:46;99384.06;;;12.72;100.00
57827;BME280;43656;57.746;11.780;2023-04-25T04:00:12;99384.06;;;12.72;100.00
57827;BME280;43656;57.746;11.780;2023-04-25T04:02:38;99381.59;;;12.70;100.00
57827;BME280;43656;57.746;11.780;2023-04-25T04:05:04;99379.47;;;12.72;100.00
57827;BME280;43656;57.746;11.780;2023-04-25T04:07:30;99371.03;;;12.68;100.00
57827;BME280;43656;57.746;11.780;2023-04-25T04:09:58;99378.81;;;12.65;100.00
57827;BME280;43656;57.746;11.780;2023-04-25T04:12:23;99385.19;;;12.76;100.00
57827;BME280;43656;57.746;11.780;2023-04-25T04:14:49;99386.06;;;12.81;100.00
57827;BME280;43656;57.746;11.780;2023-04-25T04:17:14;99378.97;;;12.75;100.00
57827;BME280;43656;57.746;11.780;2023-04-25T04:19:41;99392.03;;;12.83;100.00
57827;BME280;43656;57.746;11.780;2023-04-25T04:22:07;99375.69;;;12.73;100.00
57827;BME280;43656;57.746;11.780;2023-04-25T04:24:33;99395.81;;;12.82;100.00
57827;BME280;43656;57.746;11.780;2023-04-25T04:26:58;99398.25;;;12.84;100.00
57827;BME280;43656;57.746;11.780;2023-04-25T04:29:24;99391.44;;;12.81;100.00
57827;BME280;43656;57.746;11.780;2023-04-25T04:31:50;99392.28;;;12.82;100.00
57827;BME280;43656;57.746;11.780;2023-04-25T04:34:17;99396.53;;;12.78;100.00
57827;BME280;43656;57.746;11.780;2023-04-25T04:36:44;99405.47;;;12.78;100.00
57827;BME280;43656;57.746;11.780;2023-04-25T04:39:11;99398.19;;;12.79;100.00
57827;BME280;43656;57.746;11.780;2023-04-25T04:41:37;99385.03;;;12.65;100.00
57827;BME280;43656;57.746;11.780;2023-04-25T04:44:03;99398.69;;;12.76;100.00
57827;BME280;43656;57.746;11.780;2023-04-25T04:46:29;99383.38;;;12.64;100.00
57827;BME280;43656;57.746;11.780;2023-04-25T04:48:55;99398.91;;;12.74;100.00
57827;BME280;43656;57.746;11.780;2023-04-25T04:51:21;99398.53;;;12.65;100.00
57827;BME280;43656;57.746;11.780;2023-04-25T04:53:47;99401.88;;;12.73;100.00
57827;BME280;43656;57.746;11.780;2023-04-25T04:56:12;99407.00;;;12.74;100.00
57827;BME280;43656;57.746;11.780;2023-04-25T04:58:37;99407.25;;;12.73;100.00
57827;BME280;43656;57.746;11.780;2023-04-25T05:01:03;99411.34;;;12.75;100.00
57827;BME280;43656;57.746;11.780;2023-04-25T05:03:28;99405.69;;;12.77;100.00
57827;BME280;43656;57.746;11.780;2023-04-25T05:05:54;99404.78;;;12.71;100.00
57827;BME280;43656;57.746;11.780;2023-04-25T05:08:20;99409.38;;;12.70;100.00
57827;BME280;43656;57.746;11.780;2023-04-25T05:10:45;99409.88;;;12.67;100.00
57827;BME280;43656;57.746;11.780;2023-04-25T05:13:11;99418.88;;;12.73;100.00
57827;BME280;43656;57.746;11.780;2023-04-25T05:15:36;99414.28;;;12.74;100.00
57827;BME280;43656;57.746;11.780;2023-04-25T05:18:01;99403.97;;;12.70;100.00
57827;BME280;43656;57.746;11.780;2023-04-25T05:20:27;99417.56;;;12.76;100.00
57827;BME280;43656;57.746;11.780;2023-04-25T05:22:52;99397.19;;;12.68;100.00
57827;BME280;43656;57.746;11.780;2023-04-25T05:25:18;99397.44;;;12.66;100.00
57827;BME280;43656;57.746;11.780;2023-04-25T05:27:43;99415.59;;;12.71;100.00
57827;BME280;43656;57.746;11.780;2023-04-25T05:30:09;99414.88;;;12.76;100.00
57827;BME280;43656;57.746;11.780;2023-04-25T05:32:34;99413.75;;;12.72;100.00
57827;BME280;43656;57.746;11.780;2023-04-25T05:35:01;99406.22;;;12.57;100.00
57827;BME280;43656;57.746;11.780;2023-04-25T05:37:26;99417.00;;;12.57;100.00
57827;BME280;43656;57.746;11.780;2023-04-25T05:39:51;99423.38;;;12.67;100.00
57827;BME280;43656;57.746;11.780;2023-04-25T05:42:17;99424.94;;;12.63;100.00
57827;BME280;43656;57.746;11.780;2023-04-25T05:44:42;99430.66;;;12.50;100.00
57827;BME280;43656;57.746;11.780;2023-04-25T05:47:08;99437.44;;;12.53;100.00
57827;BME280;43656;57.746;11.780;2023-04-25T05:49:34;99435.06;;;12.56;100.00
57827;BME280;43656;57.746;11.780;2023-04-25T05:52:00;99432.97;;;12.58;100.00
57827;BME280;43656;57.746;11.780;2023-04-25T05:54:25;99422.81;;;12.49;100.00
57827;BME280;43656;57.746;11.780;2023-04-25T05:56:51;99442.53;;;12.66;100.00
57827;BME280;43656;57.746;11.780;2023-04-25T05:59:16;99447.00;;;12.60;100.00
57827;BME280;43656;57.746;11.780;2023-04-25T06:01:41;99433.44;;;12.55;100.00
57827;BME280;43656;57.746;11.780;2023-04-25T06:04:07;99367.47;;;12.12;100.00
57827;BME280;43656;57.746;11.780;2023-04-25T06:06:32;99444.16;;;12.50;100.00
57827;BME280;43656;57.746;11.780;2023-04-25T06:08:58;99441.22;;;12.52;100.00
57827;BME280;43656;57.746;11.780;2023-04-25T06:11:23;99450.03;;;12.47;100.00
57827;BME280;43656;57.746;11.780;2023-04-25T06:13:49;99453.38;;;12.37;100.00
57827;BME280;43656;57.746;11.780;2023-04-25T06:16:14;99457.22;;;12.41;100.00
57827;BME280;43656;57.746;11.780;2023-04-25T06:18:40;99432.41;;;12.11;100.00
57827;BME280;43656;57.746;11.780;2023-04-25T06:21:05;99457.03;;;12.14;100.00
57827;BME280;43656;57.746;11.780;2023-04-25T06:23:31;99456.03;;;12.04;100.00
57827;BME280;43656;57.746;11.780;2023-04-25T06:25:57;99462.03;;;11.94;100.00
57827;BME280;43656;57.746;11.780;2023-04-25T06:28:22;99452.81;;;11.90;100.00
57827;BME280;43656;57.746;11.780;2023-04-25T06:30:49;99468.56;;;11.98;100.00
57827;BME280;43656;57.746;11.780;2023-04-25T06:33:15;99469.16;;;12.00;100.00
57827;BME280;43656;57.746;11.780;2023-04-25T06:35:40;99472.78;;;12.06;100.00
57827;BME280;43656;57.746;11.780;2023-04-25T06:38:06;99466.22;;;12.02;100.00
57827;BME280;43656;57.746;11.780;2023-04-25T06:40:31;99472.94;;;11.99;100.00
57827;BME280;43656;57.746;11.780;2023-04-25T06:42:57;99474.91;;;12.04;100.00
57827;BME280;43656;57.746;11.780;2023-04-25T06:45:22;99478.03;;;12.12;100.00
57827;BME280;43656;57.746;11.780;2023-04-25T06:47:48;99480.25;;;12.15;100.00
57827;BME280;43656;57.746;11.780;2023-04-25T06:50:13;99491.28;;;12.31;99.53
57827;BME280;43656;57.746;11.780;2023-04-25T06:52:39;99490.25;;;12.03;100.00
57827;BME280;43656;57.746;11.780;2023-04-25T06:55:05;99493.78;;;12.04;100.00
57827;BME280;43656;57.746;11.780;2023-04-25T06:57:30;99496.44;;;12.15;100.00
57827;BME280;43656;57.746;11.780;2023-04-25T06:59:56;99493.50;;;12.05;100.00
57827;BME280;43656;57.746;11.780;2023-04-25T07:02:21;99489.44;;;12.03;100.00
57827;BME280;43656;57.746;11.780;2023-04-25T07:04:47;99497.22;;;11.87;100.00
57827;BME280;43656;57.746;11.780;2023-04-25T07:07:13;99507.13;;;11.98;100.00
57827;BME280;43656;57.746;11.780;2023-04-25T07:09:38;99513.16;;;11.77;100.00
57827;BME280;43656;57.746;11.780;2023-04-25T07:12:04;99505.88;;;11.77;100.00
57827;BME280;43656;57.746;11.780;2023-04-25T07:14:29;99502.66;;;11.64;100.00
57827;BME280;43656;57.746;11.780;2023-04-25T07:16:55;99498.22;;;11.58;100.00
57827;BME280;43656;57.746;11.780;2023-04-25T07:19:23;99518.34;;;11.67;100.00
57827;BME280;43656;57.746;11.780;2023-04-25T07:21:51;99520.91;;;11.73;100.00
57827;BME280;43656;57.746;11.780;2023-04-25T07:24:17;99527.13;;;11.74;100.00
57827;BME280;43656;57.746;11.780;2023-04-25T07:26:42;99508.03;;;11.64;100.00
57827;BME280;43656;57.746;11.780;2023-04-25T07:29:08;99513.69;;;11.62;100.00
57827;BME280;43656;57.746;11.780;2023-04-25T07:31:33;99534.97;;;11.87;99.30
57827;BME280;43656;57.746;11.780;2023-04-25T07:33:59;99534.00;;;11.82;99.41
57827;BME280;43656;57.746;11.780;2023-04-25T07:36:24;99533.44;;;11.68;100.00
57827;BME280;43656;57.746;11.780;2023-04-25T07:38:51;99550.75;;;11.84;99.61
57827;BME280;43656;57.746;11.780;2023-04-25T07:41:16;99545.97;;;11.74;99.62
57827;BME280;43656;57.746;11.780;2023-04-25T07:43:42;99547.03;;;11.61;99.65
57827;BME280;43656;57.746;11.780;2023-04-25T07:46:07;99547.88;;;11.62;99.33
57827;BME280;43656;57.746;11.780;2023-04-25T07:48:33;99557.72;;;11.44;99.62
57827;BME280;43656;57.746;11.780;2023-04-25T07:50:58;99558.53;;;11.21;100.00
57827;BME280;43656;57.746;11.780;2023-04-25T07:53:24;99560.06;;;11.41;98.71
57827;BME280;43656;57.746;11.780;2023-04-25T07:55:50;99569.91;;;11.12;99.87
57827;BME280;43656;57.746;11.780;2023-04-25T07:58:16;99573.44;;;11.24;99.08
57827;BME280;43656;57.746;11.780;2023-04-25T08:00:46;99571.53;;;11.24;97.98
57827;BME280;43656;57.746;11.780;2023-04-25T08:03:12;99575.28;;;11.12;98.60
57827;BME280;43656;57.746;11.780;2023-04-25T08:05:37;99579.75;;;11.06;98.26
57827;BME280;43656;57.746;11.780;2023-04-25T08:08:03;99573.50;;;10.94;98.78
57827;BME280;43656;57.746;11.780;2023-04-25T08:10:28;99587.72;;;11.13;98.42
57827;BME280;43656;57.746;11.780;2023-04-25T08:12:53;99583.59;;;11.10;97.99
57827;BME280;43656;57.746;11.780;2023-04-25T08:15:19;99589.09;;;11.03;97.91
57827;BME280;43656;57.746;11.780;2023-04-25T08:17:45;99588.75;;;11.23;97.12
57827;BME280;43656;57.746;11.780;2023-04-25T08:20:11;99551.97;;;10.94;96.88
57827;BME280;43656;57.746;11.780;2023-04-25T08:22:36;99592.38;;;11.17;96.96
57827;BME280;43656;57.746;11.780;2023-04-25T08:25:02;99592.00;;;11.02;97.74
57827;BME280;43656;57.746;11.780;2023-04-25T08:27:27;99602.44;;;11.22;96.76
57827;BME280;43656;57.746;11.780;2023-04-25T08:29:54;99600.91;;;11.14;97.22
57827;BME280;43656;57.746;11.780;2023-04-25T08:32:20;99605.13;;;11.10;96.64
57827;BME280;43656;57.746;11.780;2023-04-25T08:34:46;99609.34;;;11.06;96.64
57827;BME280;43656;57.746;11.780;2023-04-25T08:37:12;99606.91;;;11.16;95.87
57827;BME280;43656;57.746;11.780;2023-04-25T08:39:37;99614.78;;;11.29;95.29
57827;BME280;43656;57.746;11.780;2023-04-25T08:42:06;99613.91;;;11.29;95.70
57827;BME280;43656;57.746;11.780;2023-04-25T08:44:36;99619.69;;;11.33;95.17
57827;BME280;43656;57.746;11.780;2023-04-25T08:47:04;99625.19;;;11.26;95.82
57827;BME280;43656;57.746;11.780;2023-04-25T08:49:33;99628.22;;;11.41;94.86
57827;BME280;43656;57.746;11.780;2023-04-25T08:52:02;99562.69;;;10.70;95.93
57827;BME280;43656;57.746;11.780;2023-04-25T08:54:30;99651.31;;;10.95;96.70
57827;BME280;43656;57.746;11.780;2023-04-25T08:56:57;99644.25;;;11.24;94.94
57827;BME280;43656;57.746;11.780;2023-04-25T08:59:23;99631.81;;;11.00;95.16
57827;BME280;43656;57.746;11.780;2023-04-25T09:01:49;99637.22;;;11.23;94.49
57827;BME280;43656;57.746;11.780;2023-04-25T09:04:15;99662.59;;;11.16;94.79
57827;BME280;43656;57.746;11.780;2023-04-25T09:06:41;99629.69;;;11.02;93.82
57827;BME280;43656;57.746;11.780;2023-04-25T09:09:08;99656.75;;;11.19;93.49
57827;BME280;43656;57.746;11.780;2023-04-25T09:11:35;99670.56;;;11.22;93.36
57827;BME280;43656;57.746;11.780;2023-04-25T09:14:13;99669.19;;;11.20;93.41
57827;BME280;43656;57.746;11.780;2023-04-25T09:17:00;99669.19;;;11.20;92.81
57827;BME280;43656;57.746;11.780;2023-04-25T09:19:29;99666.84;;;11.35;92.31
57827;BME280;43656;57.746;11.780;2023-04-25T09:22:00;99679.81;;;11.15;93.03
57827;BME280;43656;57.746;11.780;2023-04-25T09:24:41;99687.69;;;11.16;92.62
57827;BME280;43656;57.746;11.780;2023-04-25T09:27:10;99666.81;;;11.12;91.58
57827;BME280;43656;57.746;11.780;2023-04-25T09:29:40;99686.47;;;11.12;91.68
57827;BME280;43656;57.746;11.780;2023-04-25T09:32:18;99692.28;;;10.97;91.47
57827;BME280;43656;57.746;11.780;2023-04-25T09:34:49;99699.13;;;10.81;93.18
57827;BME280;43656;57.746;11.780;2023-04-25T09:37:29;99681.06;;;11.00;91.55
57827;BME280;43656;57.746;11.780;2023-04-25T09:39:56;99710.59;;;11.07;91.61
57827;BME280;43656;57.746;11.780;2023-04-25T09:42:25;99699.91;;;10.70;92.14
57827;BME280;43656;57.746;11.780;2023-04-25T09:44:55;99716.72;;;10.96;91.05
57827;BME280;43656;57.746;11.780;2023-04-25T09:47:23;99725.59;;;11.15;90.59
57827;BME280;43656;57.746;11.780;2023-04-25T09:49:49;99726.38;;;11.03;91.35
57827;BME280;43656;57.746;11.780;2023-04-25T09:52:17;99717.94;;;11.00;91.16
57827;BME280;43656;57.746;11.780;2023-04-25T09:54:44;99740.72;;;11.27;89.95
57827;BME280;43656;57.746;11.780;2023-04-25T09:57:19;99729.91;;;11.16;89.56
57827;BME280;43656;57.746;11.780;2023-04-25T09:59:46;99738.91;;;11.40;88.36
57827;BME280;43656;57.746;11.780;2023-04-25T10:02:14;99740.06;;;11.44;87.85
57827;BME280;43656;57.746;11.780;2023-04-25T10:04:41;99728.94;;;11.52;87.13
57827;BME280;43656;57.746;11.780;2023-04-25T10:07:08;99735.34;;;11.27;87.56
57827;BME280;43656;57.746;11.780;2023-04-25T10:09:36;99760.09;;;11.36;88.08
57827;BME280;43656;57.746;11.780;2023-04-25T10:12:03;99755.00;;;11.16;88.06
57827;BME280;43656;57.746;11.780;2023-04-25T10:14:32;99764.50;;;11.31;87.54
57827;BME280;43656;57.746;11.780;2023-04-25T10:16:58;99747.47;;;11.07;87.28
57827;BME280;43656;57.746;11.780;2023-04-25T10:19:25;99768.53;;;11.40;86.56
57827;BME280;43656;57.746;11.780;2023-04-25T10:24:19;99779.72;;;11.25;85.38
57827;BME280;43656;57.746;11.780;2023-04-25T10:26:46;99784.50;;;10.74;86.95
57827;BME280;43656;57.746;11.780;2023-04-25T10:29:12;99780.59;;;10.89;86.67
57827;BME280;43656;57.746;11.780;2023-04-25T10:31:56;99764.00;;;10.92;85.89
57827;BME280;43656;57.746;11.780;2023-04-25T10:34:42;99796.38;;;11.03;85.69
57827;BME280;43656;57.746;11.780;2023-04-25T10:37:12;99798.63;;;10.88;85.91
57827;BME280;43656;57.746;11.780;2023-04-25T10:39:40;99794.94;;;11.19;84.57
57827;BME280;43656;57.746;11.780;2023-04-25T10:42:06;99807.25;;;11.09;84.50
57827;BME280;43656;57.746;11.780;2023-04-25T10:44:33;99812.81;;;10.95;85.16
57827;BME280;43656;57.746;11.780;2023-04-25T10:47:00;99811.53;;;10.98;84.16
57827;BME280;43656;57.746;11.780;2023-04-25T10:49:33;99808.66;;;10.99;84.06
57827;BME280;43656;57.746;11.780;2023-04-25T10:54:57;99810.19;;;10.89;83.72
57827;BME280;43656;57.746;11.780;2023-04-25T10:59:58;99808.47;;;10.76;84.09
57827;BME280;43656;57.746;11.780;2023-04-25T11:02:26;99794.44;;;10.74;84.27
57827;BME280;43656;57.746;11.780;2023-04-25T11:04:53;99813.72;;;10.89;84.13
57827;BME280;43656;57.746;11.780;2023-04-25T11:09:48;99828.19;;;11.25;83.36
57827;BME280;43656;57.746;11.780;2023-04-25T11:12:14;99801.69;;;10.92;83.60
57827;BME280;43656;57.746;11.780;2023-04-25T11:14:41;99827.09;;;11.14;83.33
57827;BME280;43656;57.746;11.780;2023-04-25T11:17:07;99835.81;;;11.28;82.88
57827;BME280;43656;57.746;11.780;2023-04-25T11:19:32;99835.97;;;11.15;82.62
57827;BME280;43656;57.746;11.780;2023-04-25T11:21:59;99831.44;;;10.78;83.62
57827;BME280;43656;57.746;11.780;2023-04-25T11:24:34;99835.56;;;10.99;82.92
57827;BME280;43656;57.746;11.780;2023-04-25T11:27:02;99834.34;;;10.95;82.58
57827;BME280;43656;57.746;11.780;2023-04-25T11:29:29;99822.97;;;11.12;81.73
57827;BME280;43656;57.746;11.780;2023-04-25T11:31:55;99838.88;;;11.32;81.00
57827;BME280;43656;57.746;11.780;2023-04-25T11:34:23;99843.41;;;11.19;81.72
57827;BME280;43656;57.746;11.780;2023-04-25T11:36:50;99848.47;;;11.09;82.42
57827;BME280;43656;57.746;11.780;2023-04-25T11:39:18;99836.13;;;11.20;81.71
57827;BME280;43656;57.746;11.780;2023-04-25T11:41:43;99849.44;;;11.33;81.38
57827;BME280;43656;57.746;11.780;2023-04-25T11:44:09;99852.66;;;11.23;81.42
57827;BME280;43656;57.746;11.780;2023-04-25T11:46:34;99836.38;;;11.00;81.10
57827;BME280;43656;57.746;11.780;2023-04-25T11:49:00;99867.91;;;11.11;80.81
57827;BME280;43656;57.746;11.780;2023-04-25T11:51:25;99869.38;;;11.25;80.36
57827;BME280;43656;57.746;11.780;2023-04-25T11:53:51;99861.72;;;10.92;80.78
57827;BME280;43656;57.746;11.780;2023-04-25T11:56:17;99870.31;;;11.01;80.63
57827;BME280;43656;57.746;11.780;2023-04-25T11:59:14;99876.88;;;10.68;82.19
57827;BME280;43656;57.746;11.780;2023-04-25T12:01:49;99883.41;;;10.97;81.39
57827;BME280;43656;57.746;11.780;2023-04-25T12:04:20;99882.41;;;10.92;81.98
57827;BME280;43656;57.746;11.780;2023-04-25T12:06:49;99887.38;;;10.95;81.91
57827;BME280;43656;57.746;11.780;2023-04-25T12:09:20;99885.53;;;10.52;82.96
57827;BME280;43656;57.746;11.780;2023-04-25T12:11:47;99896.91;;;10.72;82.74
57827;BME280;43656;57.746;11.780;2023-04-25T12:14:21;99896.69;;;10.92;81.57
57827;BME280;43656;57.746;11.780;2023-04-25T12:16:49;99901.34;;;10.85;82.12
57827;BME280;43656;57.746;11.780;2023-04-25T12:19:19;99894.59;;;10.76;81.74
57827;BME280;43656;57.746;11.780;2023-04-25T12:21:45;99901.03;;;10.75;81.18
57827;BME280;43656;57.746;11.780;2023-04-25T12:24:13;99896.97;;;10.66;81.63
57827;BME280;43656;57.746;11.780;2023-04-25T12:26:54;99903.81;;;10.43;83.01
57827;BME280;43656;57.746;11.780;2023-04-25T12:29:24;99909.72;;;10.52;82.55
57827;BME280;43656;57.746;11.780;2023-04-25T12:31:51;99891.25;;;10.37;82.73
57827;BME280;43656;57.746;11.780;2023-04-25T12:34:18;99912.97;;;10.61;82.28
57827;BME280;43656;57.746;11.780;2023-04-25T12:36:43;99913.25;;;10.52;82.68
57827;BME280;43656;57.746;11.780;2023-04-25T12:39:23;99920.41;;;10.40;83.31
57827;BME280;43656;57.746;11.780;2023-04-25T12:41:50;99918.53;;;10.41;82.55
57827;BME280;43656;57.746;11.780;2023-04-25T12:44:20;99924.22;;;10.51;82.14
57827;BME280;43656;57.746;11.780;2023-04-25T12:46:46;99904.63;;;10.44;82.08
57827;BME280;43656;57.746;11.780;2023-04-25T12:49:12;99923.72;;;10.35;82.06
57827;BME280;43656;57.746;11.780;2023-04-25T12:51:37;99931.97;;;10.41;81.74
57827;BME280;43656;57.746;11.780;2023-04-25T12:54:04;99928.28;;;10.60;81.57